Time;durP1;ratioP1;P1;durP2;ratioP2;P2;SDS_P1;SDS_P2;PMS_P1;PMS_P2;Temp;Humidity;BMP_temperature;BMP_pressure;BME280_temperature;BME280_humidity;BME280_pressure;Samples;Min_cycle;Max_cycle;Signal;HPM_P1;HPM_P2
2024/01/01 00:00:11;;;;;;;86.45;47.13;;;6.90;71.20;;;;;;5000565;28;20029;-58
2024/01/01 00:02:37;;;;;;;93.03;53.25;;;6.80;71.20;;;;;;5005560;28;20536;-60
2024/01/01 00:05:03;;;;;;;68.32;37.10;;;6.80;71.10;;;;;;5005118;28;20412;-59
2024/01/01 00:07:29;;;;;;;82.15;38.13;;;6.80;71.10;;;;;;5000454;28;20054;-60
2024/01/01 00:09:55;;;;;;;70.22;37.97;;;6.80;71.20;;;;;;5005623;28;20062;-58
2024/01/01 00:12:20;;;;;;;52.72;27.48;;;6.80;71.10;;;;;;5006777;28;20534;-59
2024/01/01 00:14:46;;;;;;;44.38;24.02;;;6.70;71.00;;;;;;4996025;28;20052;-58
2024/01/01 00:17:13;;;;;;;26.38;16.50;;;6.70;71.00;;;;;;5003508;28;20041;-59
2024/01/01 00:19:39;;;;;;;27.67;14.60;;;6.60;70.90;;;;;;5008355;28;20499;-58
2024/01/01 00:22:05;;;;;;;37.03;16.48;;;6.60;70.90;;;;;;5004010;28;20409;-59
2024/01/01 00:24:31;;;;;;;54.40;18.90;;;6.60;70.90;;;;;;5005828;28;20034;-60
2024/01/01 00:26:57;;;;;;;34.47;15.77;;;6.60;71.00;;;;;;4986922;28;20385;-58
2024/01/01 00:29:24;;;;;;;33.50;13.80;;;6.50;70.90;;;;;;5007884;28;20033;-58
2024/01/01 00:31:51;;;;;;;25.08;12.55;;;6.50;71.00;;;;;;5003171;28;20413;-58
2024/01/01 00:34:16;;;;;;;21.02;10.20;;;6.40;70.90;;;;;;5003556;28;20120;-59
2024/01/01 00:36:42;;;;;;;18.13;10.02;;;6.40;71.00;;;;;;5007608;28;20068;-59
2024/01/01 00:39:08;;;;;;;16.55;10.10;;;6.40;71.10;;;;;;5018148;28;20077;-58
2024/01/01 00:41:36;;;;;;;19.60;10.52;;;6.30;71.20;;;;;;5019137;28;20488;-60
2024/01/01 00:44:02;;;;;;;24.40;10.57;;;6.30;71.40;;;;;;5020024;28;20026;-59
2024/01/01 00:46:28;;;;;;;19.63;9.95;;;6.20;71.50;;;;;;5011295;28;20152;-57
2024/01/01 00:48:54;;;;;;;22.10;10.95;;;6.20;71.70;;;;;;4982940;28;20029;-58
2024/01/01 00:51:19;;;;;;;23.52;10.45;;;6.20;71.70;;;;;;5001845;28;20163;-59
2024/01/01 00:53:45;;;;;;;19.80;10.55;;;6.20;71.80;;;;;;4998666;28;20513;-58
2024/01/01 00:56:11;;;;;;;16.95;9.60;;;6.20;71.90;;;;;;5005895;28;20121;-58
2024/01/01 00:58:37;;;;;;;19.17;9.82;;;6.20;71.90;;;;;;5001668;28;20039;-59
2024/01/01 01:01:04;;;;;;;18.55;9.98;;;6.20;71.90;;;;;;5003093;28;20052;-59
2024/01/01 01:03:31;;;;;;;20.48;10.40;;;6.20;72.00;;;;;;5003113;28;20037;-58
2024/01/01 01:05:57;;;;;;;28.75;11.63;;;6.20;72.00;;;;;;5001450;28;20492;-58
2024/01/01 01:08:22;;;;;;;23.33;10.90;;;6.20;72.10;;;;;;5002649;28;20045;-58
2024/01/01 01:10:49;;;;;;;19.75;10.55;;;6.20;72.10;;;;;;4999255;28;20033;-59
2024/01/01 01:13:15;;;;;;;32.85;13.55;;;6.20;72.10;;;;;;5003851;28;20037;-58
2024/01/01 01:15:41;;;;;;;29.67;13.48;;;6.20;72.10;;;;;;5003873;28;20476;-59
2024/01/01 01:18:06;;;;;;;32.25;12.88;;;6.20;72.10;;;;;;5000481;28;20768;-59
2024/01/01 01:20:32;;;;;;;21.30;11.55;;;6.20;72.10;;;;;;5000223;28;20065;-58
2024/01/01 01:22:58;;;;;;;30.88;13.63;;;6.20;72.10;;;;;;5001953;28;20026;-61
2024/01/01 01:25:24;;;;;;;28.35;13.13;;;6.20;72.20;;;;;;4983382;28;20711;-59
2024/01/01 01:27:51;;;;;;;19.52;10.88;;;6.20;72.30;;;;;;4984934;28;20026;-58
2024/01/01 01:30:17;;;;;;;21.30;10.80;;;6.20;72.30;;;;;;4999522;28;20484;-59
2024/01/01 01:32:42;;;;;;;22.95;11.63;;;6.20;72.30;;;;;;5003400;28;20025;-59
2024/01/01 01:35:08;;;;;;;21.17;11.63;;;6.20;72.40;;;;;;5001798;28;20599;-59
2024/01/01 01:37:34;;;;;;;23.83;11.98;;;6.20;72.50;;;;;;4999173;28;20376;-58
2024/01/01 01:40:01;;;;;;;21.20;11.88;;;6.20;72.50;;;;;;4983163;28;20519;-59
2024/01/01 01:42:27;;;;;;;21.92;11.80;;;6.10;72.40;;;;;;4984630;28;20029;-59
2024/01/01 01:44:53;;;;;;;21.52;11.77;;;6.20;72.50;;;;;;5003441;28;20033;-57
2024/01/01 01:47:19;;;;;;;22.77;12.10;;;6.20;72.40;;;;;;4947931;28;20495;-58
2024/01/01 01:49:45;;;;;;;23.65;11.95;;;6.20;72.30;;;;;;5003032;28;20034;-59
2024/01/01 01:52:10;;;;;;;27.50;11.27;;;6.20;72.50;;;;;;5001827;28;20496;-59
2024/01/01 01:54:37;;;;;;;20.10;10.73;;;6.10;72.00;;;;;;5001737;28;20050;-58
2024/01/01 01:57:04;;;;;;;18.60;10.60;;;6.10;72.70;;;;;;5000439;28;20105;-58
2024/01/01 01:59:30;;;;;;;17.05;10.07;;;6.10;72.00;;;;;;4999055;28;20113;-58
2024/01/01 02:01:57;;;;;;;21.50;9.10;;;6.10;72.00;;;;;;4983524;28;20312;-59
2024/01/01 02:04:24;;;;;;;13.43;8.18;;;6.00;71.90;;;;;;4985622;28;20399;-58
2024/01/01 02:06:50;;;;;;;13.23;7.57;;;6.00;71.90;;;;;;5002517;28;20037;-59
2024/01/01 02:09:16;;;;;;;11.40;7.45;;;6.00;71.90;;;;;;5000157;28;20033;-58
2024/01/01 02:11:42;;;;;;;13.07;6.78;;;5.90;71.80;;;;;;5006175;28;20029;-59
2024/01/01 02:14:14;;;;;;;11.57;7.43;;;5.90;71.80;;;;;;5001178;28;20046;-59
2024/01/01 02:16:40;;;;;;;12.82;7.50;;;5.90;71.90;;;;;;5000299;28;20129;-58
2024/01/01 02:19:16;;;;;;;9.50;6.03;;;5.80;71.80;;;;;;5002162;28;20045;-58
2024/01/01 02:21:42;;;;;;;14.23;6.45;;;5.80;71.90;;;;;;4983657;28;20030;-59
2024/01/01 02:24:08;;;;;;;11.35;6.28;;;5.80;71.90;;;;;;5001852;28;20096;-58
2024/01/01 02:26:34;;;;;;;12.57;6.20;;;5.80;71.90;;;;;;5002942;28;20032;-59
2024/01/01 02:29:00;;;;;;;11.88;7.05;;;5.70;71.90;;;;;;5001837;28;20034;-59
2024/01/01 02:31:25;;;;;;;10.75;6.95;;;5.70;72.20;;;;;;5002537;28;20099;-59
2024/01/01 02:33:51;;;;;;;12.82;6.65;;;5.70;72.30;;;;;;4999018;28;20042;-59
2024/01/01 02:36:17;;;;;;;12.30;6.35;;;5.70;72.60;;;;;;5000046;28;20037;-59
2024/01/01 02:38:44;;;;;;;8.85;5.55;;;5.70;72.70;;;;;;4982876;28;20121;-59
2024/01/01 02:41:10;;;;;;;8.75;5.13;;;5.70;72.70;;;;;;4997211;28;20072;-59
2024/01/01 02:43:35;;;;;;;9.27;5.40;;;5.70;72.80;;;;;;5000096;28;20117;-59
2024/01/01 02:46:01;;;;;;;14.15;5.43;;;5.80;72.90;;;;;;4931414;28;20095;-59
2024/01/01 02:48:27;;;;;;;9.38;5.55;;;5.80;72.90;;;;;;5004552;28;20107;-59
2024/01/01 02:50:53;;;;;;;8.73;5.15;;;5.80;73.00;;;;;;5002765;28;20439;-59
2024/01/01 02:53:18;;;;;;;9.35;5.55;;;5.80;72.90;;;;;;5004035;28;20091;-59
2024/01/01 02:55:44;;;;;;;10.82;5.40;;;5.80;72.90;;;;;;5003717;28;20457;-59
2024/01/01 02:58:10;;;;;;;8.23;5.10;;;5.90;73.00;;;;;;5000941;28;20026;-59
2024/01/01 03:00:36;;;;;;;8.73;5.07;;;5.90;73.10;;;;;;5001496;28;20392;-58
2024/01/01 03:03:03;;;;;;;10.43;4.97;;;5.90;73.00;;;;;;5000765;28;20034;-58
2024/01/01 03:05:28;;;;;;;10.20;6.10;;;6.00;73.20;;;;;;5001156;28;20122;-59
2024/01/01 03:07:54;;;;;;;10.40;4.93;;;6.00;73.20;;;;;;5002045;28;20109;-59
2024/01/01 03:10:20;;;;;;;8.55;5.72;;;6.00;73.00;;;;;;5001029;28;20033;-59
2024/01/01 03:12:46;;;;;;;10.70;5.65;;;6.10;73.20;;;;;;5000650;28;20041;-60
2024/01/01 03:15:13;;;;;;;10.93;6.30;;;6.10;73.10;;;;;;5005937;28;20053;-60
2024/01/01 03:17:40;;;;;;;9.80;5.70;;;6.10;73.00;;;;;;4996140;28;20046;-58
2024/01/01 03:20:06;;;;;;;11.60;6.03;;;6.10;73.20;;;;;;5018642;28;20077;-59
2024/01/01 03:22:32;;;;;;;11.00;5.72;;;6.20;73.10;;;;;;5023764;28;20033;-59
2024/01/01 03:24:57;;;;;;;9.73;5.78;;;6.20;73.30;;;;;;5004025;28;20060;-59
2024/01/01 03:27:23;;;;;;;11.88;6.55;;;6.20;73.30;;;;;;5018172;28;20025;-60
2024/01/01 03:29:49;;;;;;;12.52;5.50;;;6.30;73.40;;;;;;5001359;28;20030;-59
2024/01/01 03:32:15;;;;;;;13.45;5.80;;;6.40;73.30;;;;;;5000578;28;20034;-59
2024/01/01 03:34:42;;;;;;;10.30;5.43;;;6.40;73.20;;;;;;4984986;28;20044;-58
2024/01/01 03:37:08;;;;;;;9.57;5.65;;;6.40;73.90;;;;;;5005961;28;20103;-58
2024/01/01 03:39:34;;;;;;;14.65;6.28;;;6.40;73.10;;;;;;5005857;28;20045;-58
2024/01/01 03:42:00;;;;;;;10.30;6.30;;;6.40;73.10;;;;;;5007347;28;20021;-59
2024/01/01 03:44:25;;;;;;;10.90;6.03;;;6.50;73.00;;;;;;4985942;28;20139;-59
2024/01/01 03:46:51;;;;;;;8.40;5.40;;;6.50;73.00;;;;;;4900433;28;20109;-59
2024/01/01 03:49:17;;;;;;;13.90;5.88;;;6.50;72.90;;;;;;5004100;28;20113;-60
2024/01/01 03:51:42;;;;;;;9.73;6.05;;;6.50;72.70;;;;;;5004868;28;20030;-60
2024/01/01 03:54:08;;;;;;;12.63;6.50;;;6.50;72.70;;;;;;4984317;28;20058;-58
2024/01/01 03:56:33;;;;;;;11.88;6.07;;;6.50;72.70;;;;;;5002470;28;20034;-59
2024/01/01 03:58:59;;;;;;;10.23;6.03;;;6.50;72.70;;;;;;5003721;28;20030;-59
2024/01/01 04:01:27;;;;;;;12.40;6.22;;;6.50;72.60;;;;;;5002018;28;20022;-60
2024/01/01 04:03:58;;;;;;;12.30;6.32;;;6.50;72.50;;;;;;5001046;28;20022;-61
2024/01/01 04:06:24;;;;;;;11.48;5.97;;;6.50;73.30;;;;;;5004005;28;20060;-59
2024/01/01 04:08:49;;;;;;;8.88;5.88;;;6.50;72.70;;;;;;5002993;28;20155;-58
2024/01/01 04:11:15;;;;;;;10.38;6.32;;;6.50;72.70;;;;;;4985578;28;20136;-57
2024/01/01 04:13:42;;;;;;;9.90;5.88;;;6.50;72.80;;;;;;5002879;28;20026;-61
2024/01/01 04:16:08;;;;;;;9.82;5.78;;;6.50;72.60;;;;;;4989824;28;20509;-59
2024/01/01 04:18:34;;;;;;;12.20;5.93;;;6.50;72.50;;;;;;5004105;28;20030;-60
2024/01/01 04:20:59;;;;;;;9.52;5.70;;;6.50;72.60;;;;;;5003659;28;20053;-58
2024/01/01 04:23:25;;;;;;;12.20;6.20;;;6.50;72.60;;;;;;5003488;28;20068;-59
2024/01/01 04:25:51;;;;;;;14.63;6.47;;;6.50;72.80;;;;;;5003322;28;20140;-58
2024/01/01 04:28:16;;;;;;;9.95;5.88;;;6.50;72.80;;;;;;5003617;28;20034;-59
2024/01/01 04:30:42;;;;;;;15.35;6.07;;;6.50;72.80;;;;;;4998993;28;20520;-59
2024/01/01 04:33:08;;;;;;;10.63;5.75;;;6.60;72.80;;;;;;5004556;28;20092;-59
2024/01/01 04:35:33;;;;;;;9.88;5.78;;;6.50;72.80;;;;;;5007784;28;20037;-60
2024/01/01 04:37:59;;;;;;;12.43;5.93;;;6.60;72.70;;;;;;5003074;28;20026;-58
2024/01/01 04:40:24;;;;;;;9.90;5.60;;;6.60;72.60;;;;;;5003127;28;20030;-58
2024/01/01 04:42:50;;;;;;;7.70;5.38;;;6.60;72.70;;;;;;5002485;28;20100;-59
2024/01/01 04:45:16;;;;;;;9.98;6.18;;;6.60;72.80;;;;;;5000627;28;20040;-59
2024/01/01 04:47:42;;;;;;;13.68;5.30;;;6.60;72.90;;;;;;4999528;28;20025;-59
2024/01/01 04:50:10;;;;;;;7.30;4.80;;;6.60;72.80;;;;;;5003005;28;20054;-59
2024/01/01 04:52:35;;;;;;;8.73;4.93;;;6.60;72.80;;;;;;5005025;28;20037;-59
2024/01/01 04:55:01;;;;;;;8.30;5.30;;;6.60;72.70;;;;;;4986697;28;20408;-58
2024/01/01 04:57:27;;;;;;;8.23;5.18;;;6.70;72.80;;;;;;4985368;28;20032;-59
2024/01/01 04:59:52;;;;;;;8.18;5.18;;;6.70;72.80;;;;;;5007377;28;20029;-59
2024/01/01 05:02:19;;;;;;;9.75;4.47;;;6.70;72.90;;;;;;5001336;28;20030;-58
2024/01/01 05:04:45;;;;;;;7.97;4.78;;;6.70;73.00;;;;;;4997939;28;20034;-58
2024/01/01 05:07:10;;;;;;;8.50;5.30;;;6.70;72.90;;;;;;5001517;28;20018;-59
2024/01/01 05:09:36;;;;;;;8.20;4.88;;;6.70;73.00;;;;;;5006990;28;20589;-58
2024/01/01 05:12:02;;;;;;;7.47;4.30;;;6.80;73.00;;;;;;4999662;28;20036;-59
2024/01/01 05:14:27;;;;;;;7.45;4.70;;;6.80;72.90;;;;;;5002151;28;20052;-58
2024/01/01 05:16:53;;;;;;;7.35;4.57;;;6.80;72.90;;;;;;4985500;28;20405;-59
2024/01/01 05:19:18;;;;;;;7.50;5.07;;;6.80;72.70;;;;;;5001757;28;20041;-59
2024/01/01 05:21:44;;;;;;;7.93;4.35;;;6.80;72.60;;;;;;5009335;28;20029;-59
2024/01/01 05:24:10;;;;;;;9.70;5.00;;;6.80;72.50;;;;;;5002588;28;20045;-60
2024/01/01 05:26:36;;;;;;;10.30;5.40;;;6.80;72.50;;;;;;5002219;28;20029;-59
2024/01/01 05:29:02;;;;;;;8.77;5.15;;;6.80;72.60;;;;;;4998925;28;20370;-59
2024/01/01 05:31:27;;;;;;;8.18;4.88;;;6.80;72.50;;;;;;5003545;28;20066;-58
2024/01/01 05:33:53;;;;;;;8.10;4.80;;;6.80;72.40;;;;;;5000550;28;20057;-59
2024/01/01 05:36:19;;;;;;;8.07;5.00;;;6.80;72.40;;;;;;4997722;28;20061;-60
2024/01/01 05:38:45;;;;;;;8.63;4.22;;;6.80;72.30;;;;;;5001986;28;20080;-58
2024/01/01 05:41:11;;;;;;;6.85;4.40;;;6.80;72.20;;;;;;5001647;28;20382;-58
2024/01/01 05:43:37;;;;;;;8.13;4.80;;;6.70;72.10;;;;;;5006033;28;20034;-59
2024/01/01 05:46:03;;;;;;;12.82;5.07;;;6.70;72.00;;;;;;4953558;28;20409;-59
2024/01/01 05:48:29;;;;;;;7.93;4.60;;;6.70;72.00;;;;;;5005795;28;20033;-59
2024/01/01 05:50:54;;;;;;;8.82;4.60;;;6.70;72.00;;;;;;5001615;28;20040;-59
2024/01/01 05:53:20;;;;;;;6.75;4.43;;;6.60;71.90;;;;;;5003803;28;20480;-60
2024/01/01 05:55:46;;;;;;;9.43;4.88;;;6.60;71.90;;;;;;5001362;28;20041;-60
2024/01/01 05:58:12;;;;;;;7.93;4.82;;;6.60;71.90;;;;;;5002645;28;20095;-58
2024/01/01 06:00:39;;;;;;;10.20;4.57;;;6.50;71.90;;;;;;5003480;28;20117;-59
2024/01/01 06:03:05;;;;;;;6.43;4.28;;;6.60;71.90;;;;;;5020367;28;20017;-58
2024/01/01 06:05:34;;;;;;;6.63;4.07;;;6.50;71.90;;;;;;5017358;28;20085;-60
2024/01/01 06:08:03;;;;;;;6.80;4.03;;;6.50;71.90;;;;;;5020290;28;20034;-59
2024/01/01 06:10:29;;;;;;;7.30;4.28;;;6.40;71.80;;;;;;5011702;28;20034;-59
2024/01/01 06:12:56;;;;;;;8.18;4.22;;;6.40;71.80;;;;;;5001312;28;20022;-59
2024/01/01 06:15:23;;;;;;;8.00;4.43;;;6.30;71.90;;;;;;5005905;28;20444;-58
2024/01/01 06:17:49;;;;;;;6.38;4.10;;;6.30;71.90;;;;;;5006282;28;20372;-59
2024/01/01 06:20:15;;;;;;;6.68;3.78;;;6.20;71.90;;;;;;4998652;28;20594;-59
2024/01/01 06:22:41;;;;;;;7.50;4.00;;;6.20;72.10;;;;;;4983441;28;20029;-59
2024/01/01 06:25:09;;;;;;;13.43;4.30;;;6.20;72.10;;;;;;5001356;28;20033;-58
2024/01/01 06:27:34;;;;;;;6.13;3.95;;;6.10;72.10;;;;;;5001191;28;20068;-58
2024/01/01 06:30:00;;;;;;;6.70;3.28;;;6.10;72.10;;;;;;5001720;28;20108;-60
2024/01/01 06:32:26;;;;;;;6.65;3.78;;;6.10;72.10;;;;;;5000787;28;20056;-60
2024/01/01 06:34:51;;;;;;;4.70;2.92;;;6.10;72.20;;;;;;5002934;28;20472;-59
2024/01/01 06:37:17;;;;;;;5.35;3.58;;;6.00;72.20;;;;;;5001477;28;20037;-58
2024/01/01 06:39:42;;;;;;;5.20;3.08;;;6.00;72.30;;;;;;5001175;28;20030;-59
2024/01/01 06:42:08;;;;;;;6.43;3.22;;;6.00;72.30;;;;;;5000132;28;20803;-59
2024/01/01 06:44:34;;;;;;;4.68;2.95;;;6.00;72.30;;;;;;4997868;28;20030;-59
2024/01/01 06:46:59;;;;;;;5.30;3.08;;;6.30;72.50;;;;;;4930785;28;20022;-59
2024/01/01 06:49:25;;;;;;;5.57;2.85;;;5.90;72.30;;;;;;5002105;28;20036;-59
2024/01/01 06:51:51;;;;;;;6.43;3.60;;;5.90;72.30;;;;;;4965367;28;20038;-60
2024/01/01 06:54:17;;;;;;;6.93;3.40;;;5.90;72.30;;;;;;5005217;28;20057;-61
2024/01/01 06:56:43;;;;;;;8.63;2.97;;;5.90;72.30;;;;;;4999379;28;20041;-61
2024/01/01 06:59:12;;;;;;;5.10;2.72;;;5.90;72.30;;;;;;5001164;28;20101;-59
2024/01/01 07:01:38;;;;;;;6.65;2.80;;;5.80;72.30;;;;;;4998577;28;20062;-59
2024/01/01 07:04:04;;;;;;;5.97;2.90;;;5.80;73.00;;;;;;5001479;28;20511;-57
2024/01/01 07:06:29;;;;;;;6.75;2.88;;;5.80;72.40;;;;;;4998609;28;20038;-60
2024/01/01 07:08:55;;;;;;;7.32;3.95;;;5.80;72.40;;;;;;5000772;28;20022;-60
2024/01/01 07:11:21;;;;;;;8.15;4.00;;;5.80;72.30;;;;;;4985301;28;20034;-59
2024/01/01 07:13:47;;;;;;;7.97;4.00;;;5.70;72.80;;;;;;5010854;28;20037;-59
2024/01/01 07:16:13;;;;;;;7.90;4.18;;;5.70;72.20;;;;;;4986872;28;20049;-60
2024/01/01 07:18:39;;;;;;;8.70;4.70;;;5.70;72.30;;;;;;4989506;28;20026;-59
2024/01/01 07:21:06;;;;;;;8.75;3.47;;;5.70;72.40;;;;;;5004901;28;20369;-59
2024/01/01 07:23:32;;;;;;;4.25;3.00;;;5.60;72.50;;;;;;5009485;28;20420;-59
2024/01/01 07:25:58;;;;;;;10.02;3.55;;;5.60;72.60;;;;;;5003898;28;20030;-60
2024/01/01 07:28:25;;;;;;;7.60;3.13;;;5.60;72.60;;;;;;5007277;28;20040;-59
2024/01/01 07:30:51;;;;;;;5.18;3.53;;;5.60;72.60;;;;;;5003971;28;20392;-60
2024/01/01 07:33:17;;;;;;;4.80;2.97;;;5.60;72.50;;;;;;5004788;28;20042;-60
2024/01/01 07:35:43;;;;;;;7.38;2.88;;;5.60;72.50;;;;;;5001797;28;20099;-61
2024/01/01 07:38:09;;;;;;;6.35;3.13;;;5.60;72.40;;;;;;5004494;28;20100;-60
2024/01/01 07:40:35;;;;;;;6.30;3.45;;;5.60;72.40;;;;;;4985651;28;20465;-60
2024/01/01 07:43:01;;;;;;;6.90;3.53;;;5.50;72.30;;;;;;5004381;28;20342;-61
2024/01/01 07:45:26;;;;;;;9.32;4.30;;;5.50;72.30;;;;;;4929369;28;20546;-60
2024/01/01 07:47:52;;;;;;;7.10;4.50;;;5.50;72.30;;;;;;5004840;28;20489;-61
2024/01/01 07:50:18;;;;;;;16.20;5.90;;;5.50;72.40;;;;;;5003992;28;20065;-60
2024/01/01 07:52:44;;;;;;;7.47;4.22;;;5.50;72.50;;;;;;5004654;28;20045;-60
2024/01/01 07:55:11;;;;;;;6.85;3.50;;;5.50;72.60;;;;;;5004226;28;20058;-60
2024/01/01 07:57:37;;;;;;;6.85;3.47;;;5.50;72.70;;;;;;5004382;28;20029;-61
2024/01/01 08:00:04;;;;;;;8.85;3.47;;;5.50;72.90;;;;;;5002407;28;20034;-61
2024/01/01 08:02:30;;;;;;;4.90;2.65;;;5.50;73.10;;;;;;4993738;28;20728;-61
2024/01/01 08:04:56;;;;;;;3.78;2.28;;;5.60;73.20;;;;;;4999973;28;20034;-62
2024/01/01 08:07:23;;;;;;;4.57;2.30;;;5.60;73.40;;;;;;4998399;28;20026;-60
2024/01/01 08:09:48;;;;;;;5.05;2.08;;;5.60;73.60;;;;;;5003667;28;20086;-60
2024/01/01 08:12:14;;;;;;;3.47;1.67;;;5.70;73.60;;;;;;5004247;28;20064;-61
2024/01/01 08:14:40;;;;;;;4.38;1.90;;;5.70;73.80;;;;;;5003548;28;20124;-60
2024/01/01 08:17:06;;;;;;;3.63;1.65;;;5.80;73.90;;;;;;5005555;28;20037;-61
2024/01/01 08:19:32;;;;;;;6.82;2.15;;;5.90;74.00;;;;;;5004848;28;20042;-60
2024/01/01 08:21:57;;;;;;;12.43;4.45;;;6.00;74.20;;;;;;5002338;28;20625;-60
2024/01/01 08:24:23;;;;;;;4.70;3.10;;;6.10;74.10;;;;;;4983402;28;20581;-61
2024/01/01 08:26:49;;;;;;;10.75;5.47;;;6.10;74.10;;;;;;5002692;28;20022;-60
2024/01/01 08:29:14;;;;;;;6.45;2.97;;;6.20;74.10;;;;;;5004250;28;20038;-61
2024/01/01 08:31:40;;;;;;;7.28;3.60;;;6.30;73.90;;;;;;5003412;28;20061;-60
2024/01/01 08:34:05;;;;;;;5.18;3.13;;;6.40;73.80;;;;;;5003996;28;20032;-61
2024/01/01 08:36:31;;;;;;;2.97;1.90;;;6.40;73.60;;;;;;4996558;28;20029;-60
2024/01/01 08:38:57;;;;;;;8.88;4.10;;;6.50;73.70;;;;;;5005529;28;20061;-61
2024/01/01 08:41:23;;;;;;;4.13;2.17;;;6.60;73.70;;;;;;5002095;28;20037;-61
2024/01/01 08:43:56;;;;;;;4.43;2.03;;;6.70;73.80;;;;;;5003750;28;20026;-60
2024/01/01 08:46:23;;;;;;;11.98;2.17;;;6.80;73.60;;;;;;4950054;28;20457;-60
2024/01/01 08:48:49;;;;;;;4.85;1.98;;;6.90;73.20;;;;;;4985381;28;20053;-60
2024/01/01 08:51:15;;;;;;;6.30;1.73;;;7.00;73.00;;;;;;5003116;28;20037;-60
2024/01/01 08:53:40;;;;;;;6.38;2.22;;;7.00;72.80;;;;;;5001710;28;20799;-59
2024/01/01 08:56:08;;;;;;;5.50;1.92;;;7.10;72.80;;;;;;5007073;28;20049;-60
2024/01/01 08:58:33;;;;;;;5.13;2.25;;;7.20;72.70;;;;;;5002765;28;20032;-62
2024/01/01 09:00:59;;;;;;;6.10;1.95;;;7.30;72.40;;;;;;5001434;28;20033;-61
2024/01/01 09:03:27;;;;;;;7.95;2.70;;;7.30;72.10;;;;;;4984247;28;20124;-60
2024/01/01 09:05:54;;;;;;;7.55;1.95;;;7.30;72.00;;;;;;5003215;28;20034;-61
2024/01/01 09:08:20;;;;;;;7.13;1.60;;;7.40;72.10;;;;;;4997943;28;20056;-60
2024/01/01 09:10:45;;;;;;;4.40;1.88;;;7.40;72.00;;;;;;5004267;28;20104;-61
2024/01/01 09:13:11;;;;;;;5.82;1.50;;;7.40;72.10;;;;;;5010888;28;20092;-61
2024/01/01 09:15:37;;;;;;;5.28;1.70;;;7.50;72.20;;;;;;4995460;28;20100;-61
2024/01/01 09:18:03;;;;;;;7.15;1.92;;;7.50;72.10;;;;;;5015403;28;20141;-61
2024/01/01 09:20:29;;;;;;;6.22;2.03;;;7.60;71.90;;;;;;5001112;28;20610;-61
2024/01/01 09:22:59;;;;;;;6.15;1.75;;;7.60;71.70;;;;;;4968375;28;20085;-61
2024/01/01 09:25:26;;;;;;;7.78;2.00;;;7.60;71.30;;;;;;4975866;28;20034;-61
2024/01/01 09:27:52;;;;;;;4.55;1.77;;;7.70;71.60;;;;;;5002997;28;20029;-61
2024/01/01 09:30:19;;;;;;;4.95;1.55;;;7.70;71.60;;;;;;5002647;28;20484;-61
2024/01/01 09:32:46;;;;;;;5.72;1.65;;;7.80;71.80;;;;;;4999389;28;20104;-62
2024/01/01 09:35:11;;;;;;;4.38;1.70;;;7.90;71.80;;;;;;5002999;28;20504;-61
2024/01/01 09:37:38;;;;;;;4.38;1.73;;;7.90;71.70;;;;;;5000868;28;20030;-60
2024/01/01 09:40:05;;;;;;;5.07;1.90;;;8.10;71.50;;;;;;4968157;28;20026;-60
2024/01/01 09:42:31;;;;;;;7.57;1.80;;;8.10;71.50;;;;;;4985960;28;20034;-61
2024/01/01 09:44:57;;;;;;;4.35;1.80;;;8.20;71.20;;;;;;5001503;28;20093;-61
2024/01/01 09:47:23;;;;;;;8.23;2.65;;;8.30;71.30;;;;;;4930962;28;20030;-61
2024/01/01 09:49:49;;;;;;;4.35;1.55;;;8.40;71.10;;;;;;5002568;28;20064;-61
2024/01/01 09:52:15;;;;;;;6.53;2.10;;;8.50;71.10;;;;;;4999213;28;22728;-60
2024/01/01 09:54:44;;;;;;;6.45;1.85;;;8.60;71.00;;;;;;4985872;28;20050;-61
2024/01/01 09:57:12;;;;;;;3.72;1.73;;;8.70;70.50;;;;;;5003311;28;20045;-61
2024/01/01 09:59:39;;;;;;;6.25;1.75;;;8.80;70.50;;;;;;5019946;28;20045;-61
2024/01/01 10:02:07;;;;;;;5.25;1.48;;;8.80;70.50;;;;;;5019282;28;20049;-61
2024/01/01 10:04:34;;;;;;;6.22;2.60;;;8.90;70.40;;;;;;4998493;28;20471;-62
2024/01/01 10:07:00;;;;;;;5.90;2.05;;;8.90;69.70;;;;;;5001148;28;20154;-60
2024/01/01 10:09:27;;;;;;;3.85;1.27;;;9.00;69.40;;;;;;5001505;28;20049;-60
2024/01/01 10:12:04;;;;;;;6.13;1.65;;;9.00;69.30;;;;;;4986375;28;20034;-60
2024/01/01 10:14:30;;;;;;;5.18;2.00;;;9.10;69.10;;;;;;5001756;28;20466;-61
2024/01/01 10:17:13;;;;;;;5.25;1.80;;;9.10;68.90;;;;;;5003233;28;20026;-60
2024/01/01 10:19:51;;;;;;;4.43;2.43;;;9.10;68.30;;;;;;5000918;28;20026;-60
2024/01/01 10:22:20;;;;;;;2.05;1.17;;;9.10;68.20;;;;;;5000529;28;20034;-60
2024/01/01 10:24:53;;;;;;;4.25;1.52;;;9.10;69.20;;;;;;5000491;28;20400;-59
2024/01/01 10:27:19;;;;;;;4.80;2.13;;;9.10;68.30;;;;;;5002037;28;20068;-59
2024/01/01 10:29:49;;;;;;;6.90;1.77;;;9.10;68.60;;;;;;5000194;28;20412;-60
2024/01/01 10:32:16;;;;;;;7.32;2.03;;;9.10;68.70;;;;;;4999641;28;20034;-60
2024/01/01 10:34:44;;;;;;;8.80;1.48;;;9.00;68.60;;;;;;5008890;28;20049;-60
2024/01/01 10:37:11;;;;;;;5.75;1.23;;;9.10;68.70;;;;;;5002216;28;20033;-60
2024/01/01 10:39:39;;;;;;;3.85;1.23;;;9.10;68.60;;;;;;5001270;28;20034;-59
2024/01/01 10:42:06;;;;;;;5.43;2.00;;;9.10;68.50;;;;;;5003767;28;20030;-60
2024/01/01 10:44:31;;;;;;;2.53;1.27;;;9.20;68.60;;;;;;5001971;28;20037;-60
2024/01/01 10:46:58;;;;;;;4.70;1.30;;;9.20;68.80;;;;;;4939134;28;20056;-59
2024/01/01 10:49:32;;;;;;;3.85;1.30;;;9.20;68.70;;;;;;5005548;28;20034;-59
2024/01/01 10:52:28;;;;;;;3.28;1.70;;;9.30;68.70;;;;;;5007161;28;20044;-59
2024/01/01 10:55:00;;;;;;;5.45;1.40;;;9.40;68.20;;;;;;5005345;28;20049;-60
2024/01/01 10:57:57;;;;;;;6.75;1.10;;;9.50;68.40;;;;;;5004967;28;20029;-60
2024/01/01 11:00:47;;;;;;;2.17;1.20;;;9.60;68.50;;;;;;5008952;28;20092;-61
2024/01/01 11:03:14;;;;;;;2.50;1.25;;;9.70;67.90;;;;;;5006293;28;20439;-60
2024/01/01 11:05:40;;;;;;;3.72;1.30;;;9.80;67.90;;;;;;5003725;28;20034;-62
2024/01/01 11:08:06;;;;;;;3.25;1.15;;;9.90;67.70;;;;;;5002709;28;20033;-61
2024/01/01 11:10:36;;;;;;;2.80;1.60;;;10.00;67.50;;;;;;5002169;28;20034;-61
2024/01/01 11:13:08;;;;;;;4.30;1.67;;;10.10;66.60;;;;;;4985452;28;20029;-60
2024/01/01 11:15:40;;;;;;;5.57;1.40;;;10.20;66.10;;;;;;5006115;28;20778;-60
2024/01/01 11:18:14;;;;;;;7.32;1.40;;;10.20;65.50;;;;;;5008476;28;20132;-60
2024/01/01 11:20:49;;;;;;;3.47;1.30;;;10.30;66.10;;;;;;5004605;28;20022;-61
2024/01/01 11:23:44;;;;;;;5.68;1.38;;;10.30;65.30;;;;;;5010176;28;20318;-59
2024/01/01 11:26:24;;;;;;;4.25;1.42;;;10.30;65.40;;;;;;5004784;28;20034;-61
2024/01/01 11:28:51;;;;;;;2.67;1.10;;;10.40;65.50;;;;;;5001710;28;20382;-61
2024/01/01 11:31:17;;;;;;;3.67;1.20;;;10.40;65.50;;;;;;5005752;28;20490;-61
2024/01/01 11:33:43;;;;;;;5.32;1.60;;;10.40;65.50;;;;;;5003549;28;20026;-61
2024/01/01 11:36:11;;;;;;;4.10;1.20;;;10.50;65.10;;;;;;5004480;28;20125;-61
2024/01/01 11:38:38;;;;;;;6.35;1.00;;;10.50;65.20;;;;;;5003172;28;20049;-60
2024/01/01 11:41:04;;;;;;;4.38;1.30;;;10.60;65.10;;;;;;5003335;28;20030;-62
2024/01/01 11:43:30;;;;;;;5.05;1.35;;;10.60;64.90;;;;;;5005369;28;20030;-61
2024/01/01 11:45:57;;;;;;;4.18;1.52;;;10.60;64.00;;;;;;5004791;28;20029;-61
2024/01/01 11:48:23;;;;;;;5.97;1.95;;;10.60;63.10;;;;;;5003104;28;20030;-61
2024/01/01 11:50:50;;;;;;;6.03;1.42;;;10.60;63.80;;;;;;5000873;28;20029;-60
2024/01/01 11:53:16;;;;;;;8.65;1.55;;;10.60;63.70;;;;;;5005504;28;20425;-62
2024/01/01 11:55:42;;;;;;;7.13;1.80;;;10.60;62.80;;;;;;4999864;28;20485;-61
2024/01/01 11:58:08;;;;;;;4.57;1.30;;;10.60;62.90;;;;;;5004508;28;20110;-61
2024/01/01 12:00:35;;;;;;;3.75;1.30;;;10.60;62.70;;;;;;5009169;28;20136;-62
2024/01/01 12:03:05;;;;;;;7.07;1.52;;;10.60;62.50;;;;;;5008090;28;20137;-61
2024/01/01 12:05:31;;;;;;;4.07;1.40;;;10.50;62.00;;;;;;4993609;28;20032;-61
2024/01/01 12:07:57;;;;;;;2.78;1.33;;;10.50;61.00;;;;;;5005276;28;20690;-61
2024/01/01 12:10:25;;;;;;;9.52;2.05;;;10.50;61.50;;;;;;5003947;28;20042;-61
2024/01/01 12:12:59;;;;;;;10.02;1.63;;;10.50;61.60;;;;;;5001681;28;20528;-60
2024/01/01 12:15:30;;;;;;;6.82;1.50;;;10.50;59.90;;;;;;5004456;28;20052;-61
2024/01/01 12:17:55;;;;;;;6.70;1.42;;;10.40;60.00;;;;;;5002158;28;20021;-60
2024/01/01 12:20:23;;;;;;;5.78;1.30;;;10.40;60.20;;;;;;5006492;28;20416;-61
2024/01/01 12:22:49;;;;;;;6.60;1.17;;;10.40;59.90;;;;;;5003172;28;20022;-62
2024/01/01 12:25:16;;;;;;;7.47;1.40;;;10.40;60.00;;;;;;5002135;28;20036;-60
2024/01/01 12:27:43;;;;;;;8.57;2.15;;;10.40;59.90;;;;;;5003946;28;20088;-61
2024/01/01 12:30:22;;;;;;;7.60;1.75;;;10.40;59.50;;;;;;5002411;28;20109;-62
2024/01/01 12:32:47;;;;;;;11.70;2.05;;;10.30;59.60;;;;;;5001775;28;20021;-60
2024/01/01 12:35:13;;;;;;;6.65;1.55;;;10.30;59.70;;;;;;5008885;28;20047;-60
2024/01/01 12:37:39;;;;;;;4.55;1.63;;;10.30;59.90;;;;;;5026073;28;20072;-61
2024/01/01 12:40:05;;;;;;;3.25;1.30;;;10.30;60.40;;;;;;5021017;28;20041;-62
2024/01/01 12:42:33;;;;;;;3.70;1.30;;;10.30;60.80;;;;;;5019102;28;20033;-62
2024/01/01 12:44:58;;;;;;;7.28;2.13;;;10.30;61.00;;;;;;5019584;28;20380;-61
2024/01/01 12:47:25;;;;;;;5.38;1.05;;;10.40;60.80;;;;;;5013407;28;20030;-61